sensor_id;sensor_type;location;lat;lon;timestamp;P1;durP1;ratioP1;P2;durP2;ratioP2
17153;SDS011;8692;52.164;7.558;2023-05-16T00:01:23;4.27;;;3.10;;
17153;SDS011;8692;52.164;7.558;2023-05-16T00:03:52;5.53;;;2.83;;
17153;SDS011;8692;52.164;7.558;2023-05-16T00:06:22;3.00;;;2.40;;
17153;SDS011;8692;52.164;7.558;2023-05-16T00:08:50;2.60;;;2.40;;
17153;SDS011;8692;52.164;7.558;2023-05-16T00:11:19;2.27;;;1.90;;
17153;SDS011;8692;52.164;7.558;2023-05-16T00:13:47;2.73;;;1.87;;
17153;SDS011;8692;52.164;7.558;2023-05-16T00:16:17;1.50;;;1.40;;
17153;SDS011;8692;52.164;7.558;2023-05-16T00:18:47;1.47;;;0.90;;
17153;SDS011;8692;52.164;7.558;2023-05-16T00:21:18;0.80;;;0.80;;
17153;SDS011;8692;52.164;7.558;2023-05-16T00:23:50;1.53;;;0.87;;
17153;SDS011;8692;52.164;7.558;2023-05-16T00:26:19;1.10;;;0.80;;
17153;SDS011;8692;52.164;7.558;2023-05-16T00:28:47;2.80;;;1.00;;
17153;SDS011;8692;52.164;7.558;2023-05-16T00:31:15;1.43;;;1.00;;
17153;SDS011;8692;52.164;7.558;2023-05-16T00:33:46;4.67;;;1.40;;
17153;SDS011;8692;52.164;7.558;2023-05-16T00:36:16;3.13;;;1.10;;
17153;SDS011;8692;52.164;7.558;2023-05-16T00:38:45;3.00;;;1.53;;
17153;SDS011;8692;52.164;7.558;2023-05-16T00:41:15;5.03;;;1.37;;
17153;SDS011;8692;52.164;7.558;2023-05-16T00:43:43;7.03;;;1.67;;
17153;SDS011;8692;52.164;7.558;2023-05-16T00:46:14;6.30;;;1.67;;
17153;SDS011;8692;52.164;7.558;2023-05-16T00:48:42;6.80;;;1.90;;
17153;SDS011;8692;52.164;7.558;2023-05-16T00:51:11;7.00;;;1.90;;
17153;SDS011;8692;52.164;7.558;2023-05-16T00:53:41;6.60;;;1.90;;
17153;SDS011;8692;52.164;7.558;2023-05-16T00:56:09;7.73;;;1.70;;
17153;SDS011;8692;52.164;7.558;2023-05-16T00:58:39;5.20;;;1.73;;
17153;SDS011;8692;52.164;7.558;2023-05-16T01:01:11;4.67;;;1.40;;
17153;SDS011;8692;52.164;7.558;2023-05-16T01:03:39;10.13;;;1.90;;
17153;SDS011;8692;52.164;7.558;2023-05-16T01:06:11;6.80;;;2.63;;
17153;SDS011;8692;52.164;7.558;2023-05-16T01:08:39;5.83;;;1.67;;
17153;SDS011;8692;52.164;7.558;2023-05-16T01:11:09;4.33;;;1.87;;
17153;SDS011;8692;52.164;7.558;2023-05-16T01:13:45;6.03;;;1.80;;
17153;SDS011;8692;52.164;7.558;2023-05-16T01:16:19;4.43;;;1.73;;
17153;SDS011;8692;52.164;7.558;2023-05-16T01:18:56;4.60;;;1.63;;
17153;SDS011;8692;52.164;7.558;2023-05-16T01:21:41;7.87;;;2.03;;
17153;SDS011;8692;52.164;7.558;2023-05-16T01:24:19;6.23;;;1.87;;
17153;SDS011;8692;52.164;7.558;2023-05-16T01:26:54;8.60;;;1.93;;
17153;SDS011;8692;52.164;7.558;2023-05-16T01:29:25;9.13;;;2.57;;
17153;SDS011;8692;52.164;7.558;2023-05-16T01:31:54;6.60;;;2.17;;
17153;SDS011;8692;52.164;7.558;2023-05-16T01:34:23;7.63;;;2.20;;
17153;SDS011;8692;52.164;7.558;2023-05-16T01:36:55;7.20;;;2.30;;
17153;SDS011;8692;52.164;7.558;2023-05-16T01:39:33;5.90;;;2.23;;
17153;SDS011;8692;52.164;7.558;2023-05-16T01:42:11;6.77;;;2.37;;
17153;SDS011;8692;52.164;7.558;2023-05-16T01:44:42;10.90;;;2.60;;
17153;SDS011;8692;52.164;7.558;2023-05-16T01:47:18;10.57;;;2.70;;
17153;SDS011;8692;52.164;7.558;2023-05-16T01:49:49;8.57;;;1.90;;
17153;SDS011;8692;52.164;7.558;2023-05-16T01:52:31;11.67;;;1.87;;
17153;SDS011;8692;52.164;7.558;2023-05-16T01:55:08;4.23;;;1.73;;
17153;SDS011;8692;52.164;7.558;2023-05-16T01:57:42;4.97;;;2.00;;
17153;SDS011;8692;52.164;7.558;2023-05-16T02:00:12;9.67;;;2.53;;
17153;SDS011;8692;52.164;7.558;2023-05-16T02:02:41;7.83;;;2.47;;
17153;SDS011;8692;52.164;7.558;2023-05-16T02:05:09;5.83;;;2.10;;
17153;SDS011;8692;52.164;7.558;2023-05-16T02:07:41;7.20;;;2.63;;
17153;SDS011;8692;52.164;7.558;2023-05-16T02:10:11;7.77;;;2.70;;
17153;SDS011;8692;52.164;7.558;2023-05-16T02:12:39;9.57;;;2.40;;
17153;SDS011;8692;52.164;7.558;2023-05-16T02:15:09;10.63;;;2.57;;
17153;SDS011;8692;52.164;7.558;2023-05-16T02:17:42;9.30;;;2.67;;
17153;SDS011;8692;52.164;7.558;2023-05-16T02:20:14;9.00;;;3.40;;
17153;SDS011;8692;52.164;7.558;2023-05-16T02:22:45;8.43;;;2.83;;
17153;SDS011;8692;52.164;7.558;2023-05-16T02:25:15;10.07;;;2.60;;
17153;SDS011;8692;52.164;7.558;2023-05-16T02:27:43;7.93;;;2.27;;
17153;SDS011;8692;52.164;7.558;2023-05-16T02:30:15;8.93;;;2.60;;
17153;SDS011;8692;52.164;7.558;2023-05-16T02:32:45;12.07;;;2.97;;
17153;SDS011;8692;52.164;7.558;2023-05-16T02:35:15;10.20;;;2.50;;
17153;SDS011;8692;52.164;7.558;2023-05-16T02:37:44;10.97;;;2.80;;
17153;SDS011;8692;52.164;7.558;2023-05-16T02:40:12;13.90;;;2.90;;
17153;SDS011;8692;52.164;7.558;2023-05-16T02:42:43;10.73;;;2.60;;
17153;SDS011;8692;52.164;7.558;2023-05-16T02:45:15;10.73;;;2.60;;
17153;SDS011;8692;52.164;7.558;2023-05-16T02:47:44;11.77;;;3.20;;
17153;SDS011;8692;52.164;7.558;2023-05-16T02:50:12;9.57;;;2.23;;
17153;SDS011;8692;52.164;7.558;2023-05-16T02:52:42;14.30;;;2.80;;
17153;SDS011;8692;52.164;7.558;2023-05-16T02:55:10;14.03;;;2.60;;
17153;SDS011;8692;52.164;7.558;2023-05-16T02:57:48;14.73;;;3.20;;
17153;SDS011;8692;52.164;7.558;2023-05-16T03:00:20;12.80;;;2.43;;
17153;SDS011;8692;52.164;7.558;2023-05-16T03:02:49;7.80;;;2.20;;
17153;SDS011;8692;52.164;7.558;2023-05-16T03:05:18;11.67;;;3.10;;
17153;SDS011;8692;52.164;7.558;2023-05-16T03:07:47;14.10;;;3.07;;
17153;SDS011;8692;52.164;7.558;2023-05-16T03:10:16;11.03;;;2.80;;
17153;SDS011;8692;52.164;7.558;2023-05-16T03:12:46;8.53;;;2.77;;
17153;SDS011;8692;52.164;7.558;2023-05-16T03:15:14;11.93;;;2.50;;
17153;SDS011;8692;52.164;7.558;2023-05-16T03:17:44;16.93;;;3.13;;
17153;SDS011;8692;52.164;7.558;2023-05-16T03:20:12;11.43;;;2.87;;
17153;SDS011;8692;52.164;7.558;2023-05-16T03:22:43;11.73;;;2.90;;
17153;SDS011;8692;52.164;7.558;2023-05-16T03:25:13;13.80;;;2.90;;
17153;SDS011;8692;52.164;7.558;2023-05-16T03:27:44;15.63;;;3.27;;
17153;SDS011;8692;52.164;7.558;2023-05-16T03:30:12;9.97;;;2.40;;
17153;SDS011;8692;52.164;7.558;2023-05-16T03:32:40;9.00;;;2.37;;
17153;SDS011;8692;52.164;7.558;2023-05-16T03:35:13;9.80;;;2.40;;
17153;SDS011;8692;52.164;7.558;2023-05-16T03:37:41;8.80;;;2.13;;
17153;SDS011;8692;52.164;7.558;2023-05-16T03:40:10;10.77;;;2.47;;
17153;SDS011;8692;52.164;7.558;2023-05-16T03:42:41;8.30;;;2.90;;
17153;SDS011;8692;52.164;7.558;2023-05-16T03:45:11;15.30;;;3.43;;
17153;SDS011;8692;52.164;7.558;2023-05-16T03:47:39;6.80;;;2.37;;
17153;SDS011;8692;52.164;7.558;2023-05-16T03:50:08;13.13;;;2.87;;
17153;SDS011;8692;52.164;7.558;2023-05-16T03:52:38;11.23;;;2.43;;
17153;SDS011;8692;52.164;7.558;2023-05-16T03:55:06;7.17;;;2.57;;
17153;SDS011;8692;52.164;7.558;2023-05-16T03:57:35;9.13;;;2.10;;
17153;SDS011;8692;52.164;7.558;2023-05-16T04:00:04;8.23;;;1.70;;
17153;SDS011;8692;52.164;7.558;2023-05-16T04:02:36;10.67;;;1.87;;
17153;SDS011;8692;52.164;7.558;2023-05-16T04:05:07;15.37;;;3.33;;
17153;SDS011;8692;52.164;7.558;2023-05-16T04:07:40;8.67;;;2.70;;
17153;SDS011;8692;52.164;7.558;2023-05-16T04:10:08;7.87;;;1.80;;
17153;SDS011;8692;52.164;7.558;2023-05-16T04:12:37;8.53;;;2.17;;
17153;SDS011;8692;52.164;7.558;2023-05-16T04:15:08;8.67;;;2.33;;
17153;SDS011;8692;52.164;7.558;2023-05-16T04:17:36;12.27;;;2.60;;
17153;SDS011;8692;52.164;7.558;2023-05-16T04:20:08;9.87;;;2.47;;
17153;SDS011;8692;52.164;7.558;2023-05-16T04:22:37;10.43;;;2.40;;
17153;SDS011;8692;52.164;7.558;2023-05-16T04:25:07;7.13;;;2.33;;
17153;SDS011;8692;52.164;7.558;2023-05-16T04:27:36;8.33;;;2.23;;
17153;SDS011;8692;52.164;7.558;2023-05-16T04:30:05;12.97;;;2.23;;
17153;SDS011;8692;52.164;7.558;2023-05-16T04:32:35;10.87;;;2.43;;
17153;SDS011;8692;52.164;7.558;2023-05-16T04:35:03;13.87;;;2.60;;
17153;SDS011;8692;52.164;7.558;2023-05-16T04:37:34;8.37;;;2.10;;
17153;SDS011;8692;52.164;7.558;2023-05-16T04:40:08;6.43;;;2.57;;
17153;SDS011;8692;52.164;7.558;2023-05-16T04:42:38;8.40;;;2.80;;
17153;SDS011;8692;52.164;7.558;2023-05-16T04:45:07;7.43;;;2.43;;
17153;SDS011;8692;52.164;7.558;2023-05-16T04:47:37;11.17;;;2.63;;
17153;SDS011;8692;52.164;7.558;2023-05-16T04:50:06;10.30;;;2.67;;
17153;SDS011;8692;52.164;7.558;2023-05-16T04:52:35;10.53;;;2.70;;
17153;SDS011;8692;52.164;7.558;2023-05-16T04:55:06;6.67;;;2.10;;
17153;SDS011;8692;52.164;7.558;2023-05-16T04:57:37;11.80;;;2.33;;
17153;SDS011;8692;52.164;7.558;2023-05-16T05:00:05;6.00;;;1.67;;
17153;SDS011;8692;52.164;7.558;2023-05-16T05:02:35;8.80;;;2.10;;
17153;SDS011;8692;52.164;7.558;2023-05-16T05:05:04;10.97;;;2.37;;
17153;SDS011;8692;52.164;7.558;2023-05-16T05:07:36;7.80;;;2.27;;
17153;SDS011;8692;52.164;7.558;2023-05-16T05:10:08;11.17;;;2.50;;
17153;SDS011;8692;52.164;7.558;2023-05-16T05:12:39;11.70;;;1.90;;
17153;SDS011;8692;52.164;7.558;2023-05-16T05:15:10;13.00;;;2.60;;
17153;SDS011;8692;52.164;7.558;2023-05-16T05:17:38;12.83;;;2.27;;
17153;SDS011;8692;52.164;7.558;2023-05-16T05:20:07;9.55;;;2.22;;
17153;SDS011;8692;52.164;7.558;2023-05-16T05:22:36;8.77;;;2.78;;
17153;SDS011;8692;52.164;7.558;2023-05-16T05:25:05;11.83;;;2.53;;
17153;SDS011;8692;52.164;7.558;2023-05-16T05:27:37;7.53;;;1.97;;
17153;SDS011;8692;52.164;7.558;2023-05-16T05:30:05;13.83;;;2.63;;
17153;SDS011;8692;52.164;7.558;2023-05-16T05:32:34;7.07;;;1.97;;
17153;SDS011;8692;52.164;7.558;2023-05-16T05:35:05;14.63;;;2.70;;
17153;SDS011;8692;52.164;7.558;2023-05-16T05:37:34;11.10;;;2.67;;
17153;SDS011;8692;52.164;7.558;2023-05-16T05:40:02;8.87;;;1.93;;
17153;SDS011;8692;52.164;7.558;2023-05-16T05:42:31;9.87;;;2.57;;
17153;SDS011;8692;52.164;7.558;2023-05-16T05:45:00;8.70;;;2.13;;
17153;SDS011;8692;52.164;7.558;2023-05-16T05:47:29;10.90;;;2.30;;
17153;SDS011;8692;52.164;7.558;2023-05-16T05:49:57;11.63;;;2.27;;
17153;SDS011;8692;52.164;7.558;2023-05-16T05:52:25;11.70;;;2.47;;
17153;SDS011;8692;52.164;7.558;2023-05-16T05:54:57;11.63;;;2.17;;
17153;SDS011;8692;52.164;7.558;2023-05-16T05:57:25;17.07;;;3.77;;
17153;SDS011;8692;52.164;7.558;2023-05-16T05:59:55;9.63;;;2.27;;
17153;SDS011;8692;52.164;7.558;2023-05-16T06:02:27;14.37;;;2.60;;
17153;SDS011;8692;52.164;7.558;2023-05-16T06:04:56;13.77;;;1.83;;
17153;SDS011;8692;52.164;7.558;2023-05-16T06:07:27;11.83;;;2.03;;
17153;SDS011;8692;52.164;7.558;2023-05-16T06:09:55;9.97;;;1.93;;
17153;SDS011;8692;52.164;7.558;2023-05-16T06:12:23;7.53;;;2.10;;
17153;SDS011;8692;52.164;7.558;2023-05-16T06:14:51;8.07;;;2.40;;
17153;SDS011;8692;52.164;7.558;2023-05-16T06:17:22;7.37;;;2.57;;
17153;SDS011;8692;52.164;7.558;2023-05-16T06:19:51;12.17;;;2.23;;
17153;SDS011;8692;52.164;7.558;2023-05-16T06:22:20;10.47;;;2.33;;
17153;SDS011;8692;52.164;7.558;2023-05-16T06:24:48;11.83;;;2.30;;
17153;SDS011;8692;52.164;7.558;2023-05-16T06:27:16;9.37;;;2.30;;
17153;SDS011;8692;52.164;7.558;2023-05-16T06:29:46;10.27;;;2.10;;
17153;SDS011;8692;52.164;7.558;2023-05-16T06:32:15;8.33;;;2.20;;
17153;SDS011;8692;52.164;7.558;2023-05-16T06:34:43;9.33;;;2.30;;
17153;SDS011;8692;52.164;7.558;2023-05-16T06:37:15;8.40;;;2.20;;
17153;SDS011;8692;52.164;7.558;2023-05-16T06:39:43;8.93;;;2.13;;
17153;SDS011;8692;52.164;7.558;2023-05-16T06:42:11;8.77;;;1.80;;
17153;SDS011;8692;52.164;7.558;2023-05-16T06:44:40;11.33;;;1.80;;
17153;SDS011;8692;52.164;7.558;2023-05-16T06:47:11;10.63;;;3.10;;
17153;SDS011;8692;52.164;7.558;2023-05-16T06:49:39;13.10;;;2.33;;
17153;SDS011;8692;52.164;7.558;2023-05-16T06:52:07;11.33;;;2.07;;
17153;SDS011;8692;52.164;7.558;2023-05-16T06:54:37;5.53;;;2.10;;
17153;SDS011;8692;52.164;7.558;2023-05-16T06:57:05;6.93;;;2.07;;
17153;SDS011;8692;52.164;7.558;2023-05-16T06:59:36;8.63;;;1.97;;
17153;SDS011;8692;52.164;7.558;2023-05-16T07:02:04;10.67;;;1.57;;
17153;SDS011;8692;52.164;7.558;2023-05-16T07:04:33;9.17;;;1.83;;
17153;SDS011;8692;52.164;7.558;2023-05-16T07:07:03;6.93;;;1.90;;
17153;SDS011;8692;52.164;7.558;2023-05-16T07:09:33;11.57;;;1.67;;
17153;SDS011;8692;52.164;7.558;2023-05-16T07:12:05;5.17;;;1.70;;
17153;SDS011;8692;52.164;7.558;2023-05-16T07:14:34;10.37;;;1.43;;
17153;SDS011;8692;52.164;7.558;2023-05-16T07:17:02;8.83;;;1.53;;
17153;SDS011;8692;52.164;7.558;2023-05-16T07:19:30;9.37;;;1.93;;
17153;SDS011;8692;52.164;7.558;2023-05-16T07:21:59;10.13;;;1.90;;
17153;SDS011;8692;52.164;7.558;2023-05-16T07:24:27;8.20;;;1.70;;
17153;SDS011;8692;52.164;7.558;2023-05-16T07:26:57;11.43;;;2.27;;
17153;SDS011;8692;52.164;7.558;2023-05-16T07:29:27;6.13;;;1.50;;
17153;SDS011;8692;52.164;7.558;2023-05-16T07:31:56;8.43;;;1.83;;
17153;SDS011;8692;52.164;7.558;2023-05-16T07:34:24;11.10;;;1.30;;
17153;SDS011;8692;52.164;7.558;2023-05-16T07:36:53;4.80;;;1.70;;
17153;SDS011;8692;52.164;7.558;2023-05-16T07:39:21;10.33;;;1.80;;
17153;SDS011;8692;52.164;7.558;2023-05-16T07:41:49;6.73;;;1.57;;
17153;SDS011;8692;52.164;7.558;2023-05-16T07:44:18;5.47;;;1.27;;
17153;SDS011;8692;52.164;7.558;2023-05-16T07:46:50;8.00;;;1.40;;
17153;SDS011;8692;52.164;7.558;2023-05-16T07:49:18;7.07;;;1.30;;
17153;SDS011;8692;52.164;7.558;2023-05-16T07:51:49;5.37;;;1.83;;
17153;SDS011;8692;52.164;7.558;2023-05-16T07:54:17;7.60;;;1.50;;
17153;SDS011;8692;52.164;7.558;2023-05-16T07:56:45;5.80;;;1.50;;
17153;SDS011;8692;52.164;7.558;2023-05-16T07:59:17;7.20;;;1.40;;
17153;SDS011;8692;52.164;7.558;2023-05-16T08:01:45;12.57;;;1.87;;
17153;SDS011;8692;52.164;7.558;2023-05-16T08:04:18;7.73;;;1.53;;
17153;SDS011;8692;52.164;7.558;2023-05-16T08:06:46;5.23;;;1.33;;
17153;SDS011;8692;52.164;7.558;2023-05-16T08:09:16;6.33;;;1.37;;
17153;SDS011;8692;52.164;7.558;2023-05-16T08:11:44;6.73;;;1.67;;
17153;SDS011;8692;52.164;7.558;2023-05-16T08:14:15;11.20;;;1.33;;
17153;SDS011;8692;52.164;7.558;2023-05-16T08:16:44;7.37;;;1.47;;
17153;SDS011;8692;52.164;7.558;2023-05-16T08:19:12;8.27;;;1.30;;
17153;SDS011;8692;52.164;7.558;2023-05-16T08:21:44;5.87;;;1.60;;
17153;SDS011;8692;52.164;7.558;2023-05-16T08:24:13;5.40;;;1.60;;
17153;SDS011;8692;52.164;7.558;2023-05-16T08:26:43;5.80;;;1.50;;
17153;SDS011;8692;52.164;7.558;2023-05-16T08:29:16;7.03;;;1.13;;
17153;SDS011;8692;52.164;7.558;2023-05-16T08:31:46;5.67;;;1.40;;
17153;SDS011;8692;52.164;7.558;2023-05-16T08:34:15;4.20;;;1.30;;
17153;SDS011;8692;52.164;7.558;2023-05-16T08:36:44;3.63;;;1.40;;
17153;SDS011;8692;52.164;7.558;2023-05-16T08:39:16;6.57;;;1.70;;
17153;SDS011;8692;52.164;7.558;2023-05-16T08:41:44;3.97;;;1.43;;
17153;SDS011;8692;52.164;7.558;2023-05-16T08:44:14;6.00;;;1.20;;
17153;SDS011;8692;52.164;7.558;2023-05-16T08:46:48;5.93;;;1.67;;
17153;SDS011;8692;52.164;7.558;2023-05-16T08:49:18;6.47;;;1.30;;
17153;SDS011;8692;52.164;7.558;2023-05-16T08:51:50;5.10;;;1.60;;
17153;SDS011;8692;52.164;7.558;2023-05-16T08:54:23;5.80;;;0.90;;
17153;SDS011;8692;52.164;7.558;2023-05-16T08:56:53;6.40;;;1.60;;
17153;SDS011;8692;52.164;7.558;2023-05-16T08:59:24;4.47;;;1.20;;
17153;SDS011;8692;52.164;7.558;2023-05-16T09:01:52;11.70;;;1.50;;
17153;SDS011;8692;52.164;7.558;2023-05-16T09:04:21;3.77;;;1.20;;
17153;SDS011;8692;52.164;7.558;2023-05-16T09:06:52;6.13;;;1.43;;
17153;SDS011;8692;52.164;7.558;2023-05-16T09:09:23;6.37;;;1.33;;
17153;SDS011;8692;52.164;7.558;2023-05-16T09:11:51;4.97;;;1.00;;
17153;SDS011;8692;52.164;7.558;2023-05-16T09:14:19;5.47;;;1.20;;
17153;SDS011;8692;52.164;7.558;2023-05-16T09:16:56;4.30;;;1.13;;
17153;SDS011;8692;52.164;7.558;2023-05-16T09:19:36;6.77;;;1.13;;
17153;SDS011;8692;52.164;7.558;2023-05-16T09:22:07;4.43;;;1.30;;
17153;SDS011;8692;52.164;7.558;2023-05-16T09:24:37;6.60;;;1.20;;
17153;SDS011;8692;52.164;7.558;2023-05-16T09:27:06;2.67;;;0.73;;
17153;SDS011;8692;52.164;7.558;2023-05-16T09:29:38;3.63;;;1.03;;
17153;SDS011;8692;52.164;7.558;2023-05-16T09:32:08;3.70;;;1.17;;
17153;SDS011;8692;52.164;7.558;2023-05-16T09:34:38;2.83;;;0.87;;
17153;SDS011;8692;52.164;7.558;2023-05-16T09:37:15;5.07;;;1.30;;
17153;SDS011;8692;52.164;7.558;2023-05-16T09:39:44;4.07;;;1.20;;
17153;SDS011;8692;52.164;7.558;2023-05-16T09:42:17;8.23;;;1.20;;
17153;SDS011;8692;52.164;7.558;2023-05-16T09:44:49;4.23;;;1.20;;
17153;SDS011;8692;52.164;7.558;2023-05-16T09:47:20;6.40;;;1.10;;
17153;SDS011;8692;52.164;7.558;2023-05-16T09:49:50;5.87;;;1.20;;
17153;SDS011;8692;52.164;7.558;2023-05-16T09:52:21;3.00;;;0.90;;
17153;SDS011;8692;52.164;7.558;2023-05-16T09:54:49;5.63;;;1.30;;
17153;SDS011;8692;52.164;7.558;2023-05-16T09:57:17;6.33;;;2.07;;
17153;SDS011;8692;52.164;7.558;2023-05-16T09:59:46;6.17;;;1.30;;
17153;SDS011;8692;52.164;7.558;2023-05-16T10:02:18;3.00;;;1.10;;
17153;SDS011;8692;52.164;7.558;2023-05-16T10:04:50;3.83;;;1.00;;
17153;SDS011;8692;52.164;7.558;2023-05-16T10:07:18;6.17;;;1.60;;
17153;SDS011;8692;52.164;7.558;2023-05-16T10:09:53;3.83;;;1.07;;
17153;SDS011;8692;52.164;7.558;2023-05-16T10:12:22;6.83;;;1.33;;
17153;SDS011;8692;52.164;7.558;2023-05-16T10:14:56;4.73;;;1.30;;
17153;SDS011;8692;52.164;7.558;2023-05-16T10:17:26;2.60;;;0.83;;
17153;SDS011;8692;52.164;7.558;2023-05-16T10:19:58;4.77;;;1.00;;
17153;SDS011;8692;52.164;7.558;2023-05-16T10:22:33;3.57;;;1.20;;
17153;SDS011;8692;52.164;7.558;2023-05-16T10:25:05;4.17;;;1.20;;
17153;SDS011;8692;52.164;7.558;2023-05-16T10:27:39;2.47;;;0.77;;
17153;SDS011;8692;52.164;7.558;2023-05-16T10:30:09;3.77;;;1.10;;
17153;SDS011;8692;52.164;7.558;2023-05-16T10:32:40;2.37;;;0.87;;
17153;SDS011;8692;52.164;7.558;2023-05-16T10:35:11;4.33;;;1.10;;
17153;SDS011;8692;52.164;7.558;2023-05-16T10:37:40;1.97;;;0.83;;
17153;SDS011;8692;52.164;7.558;2023-05-16T10:40:10;2.27;;;0.90;;
17153;SDS011;8692;52.164;7.558;2023-05-16T10:42:42;3.60;;;1.10;;
17153;SDS011;8692;52.164;7.558;2023-05-16T10:45:15;3.13;;;1.10;;
17153;SDS011;8692;52.164;7.558;2023-05-16T10:47:51;4.10;;;0.77;;
17153;SDS011;8692;52.164;7.558;2023-05-16T10:50:30;3.13;;;0.77;;
17153;SDS011;8692;52.164;7.558;2023-05-16T10:53:17;2.50;;;1.20;;
17153;SDS011;8692;52.164;7.558;2023-05-16T10:55:49;3.27;;;1.20;;
17153;SDS011;8692;52.164;7.558;2023-05-16T10:58:39;4.03;;;1.00;;
17153;SDS011;8692;52.164;7.558;2023-05-16T11:01:18;3.30;;;1.03;;
17153;SDS011;8692;52.164;7.558;2023-05-16T11:04:05;5.50;;;1.13;;
17153;SDS011;8692;52.164;7.558;2023-05-16T11:06:42;1.00;;;0.80;;
17153;SDS011;8692;52.164;7.558;2023-05-16T11:09:24;3.73;;;0.90;;
17153;SDS011;8692;52.164;7.558;2023-05-16T11:11:55;3.50;;;1.07;;
17153;SDS011;8692;52.164;7.558;2023-05-16T11:14:28;1.57;;;0.87;;
17153;SDS011;8692;52.164;7.558;2023-05-16T11:17:06;4.93;;;1.20;;
17153;SDS011;8692;52.164;7.558;2023-05-16T11:19:39;4.13;;;1.20;;
17153;SDS011;8692;52.164;7.558;2023-05-16T11:22:20;5.03;;;1.33;;
17153;SDS011;8692;52.164;7.558;2023-05-16T11:24:52;6.80;;;1.27;;
17153;SDS011;8692;52.164;7.558;2023-05-16T11:27:24;5.23;;;1.33;;
17153;SDS011;8692;52.164;7.558;2023-05-16T11:29:54;4.50;;;1.33;;
17153;SDS011;8692;52.164;7.558;2023-05-16T11:32:28;8.30;;;1.40;;
17153;SDS011;8692;52.164;7.558;2023-05-16T11:35:00;3.30;;;1.10;;
17153;SDS011;8692;52.164;7.558;2023-05-16T11:37:29;3.17;;;0.90;;
17153;SDS011;8692;52.164;7.558;2023-05-16T11:39:59;6.13;;;1.20;;
17153;SDS011;8692;52.164;7.558;2023-05-16T11:42:28;4.13;;;0.70;;
17153;SDS011;8692;52.164;7.558;2023-05-16T11:45:05;4.47;;;1.17;;
17153;SDS011;8692;52.164;7.558;2023-05-16T11:47:36;3.70;;;1.03;;
17153;SDS011;8692;52.164;7.558;2023-05-16T11:50:10;3.37;;;0.80;;
17153;SDS011;8692;52.164;7.558;2023-05-16T11:52:39;3.40;;;0.83;;
17153;SDS011;8692;52.164;7.558;2023-05-16T11:55:20;6.10;;;1.40;;
17153;SDS011;8692;52.164;7.558;2023-05-16T11:58:09;1.90;;;0.90;;
17153;SDS011;8692;52.164;7.558;2023-05-16T12:00:46;2.23;;;1.00;;
17153;SDS011;8692;52.164;7.558;2023-05-16T12:03:15;2.10;;;0.70;;
17153;SDS011;8692;52.164;7.558;2023-05-16T12:05:48;2.73;;;0.70;;
17153;SDS011;8692;52.164;7.558;2023-05-16T12:08:18;5.57;;;1.37;;
17153;SDS011;8692;52.164;7.558;2023-05-16T12:10:51;5.87;;;1.30;;
17153;SDS011;8692;52.164;7.558;2023-05-16T12:13:21;5.17;;;1.20;;
17153;SDS011;8692;52.164;7.558;2023-05-16T12:15:51;4.27;;;1.07;;
17153;SDS011;8692;52.164;7.558;2023-05-16T12:18:19;3.73;;;0.93;;
17153;SDS011;8692;52.164;7.558;2023-05-16T12:20:52;2.17;;;1.10;;
17153;SDS011;8692;52.164;7.558;2023-05-16T12:23:20;2.83;;;1.17;;
17153;SDS011;8692;52.164;7.558;2023-05-16T12:25:49;5.67;;;1.17;;
17153;SDS011;8692;52.164;7.558;2023-05-16T12:28:22;3.27;;;0.90;;
17153;SDS011;8692;52.164;7.558;2023-05-16T12:30:50;4.97;;;1.53;;
17153;SDS011;8692;52.164;7.558;2023-05-16T12:33:18;5.07;;;1.23;;
17153;SDS011;8692;52.164;7.558;2023-05-16T12:35:49;4.63;;;1.07;;
17153;SDS011;8692;52.164;7.558;2023-05-16T12:38:20;4.63;;;1.07;;
17153;SDS011;8692;52.164;7.558;2023-05-16T12:40:56;5.17;;;1.20;;
17153;SDS011;8692;52.164;7.558;2023-05-16T12:43:26;5.60;;;1.37;;
17153;SDS011;8692;52.164;7.558;2023-05-16T12:45:57;3.13;;;1.03;;
17153;SDS011;8692;52.164;7.558;2023-05-16T12:48:30;3.27;;;1.00;;
17153;SDS011;8692;52.164;7.558;2023-05-16T12:51:08;4.27;;;1.30;;
17153;SDS011;8692;52.164;7.558;2023-05-16T12:53:42;4.13;;;1.23;;
17153;SDS011;8692;52.164;7.558;2023-05-16T12:56:36;4.03;;;1.13;;
17153;SDS011;8692;52.164;7.558;2023-05-16T12:59:06;4.90;;;1.13;;
17153;SDS011;8692;52.164;7.558;2023-05-16T13:01:37;2.30;;;0.90;;
17153;SDS011;8692;52.164;7.558;2023-05-16T13:04:09;1.93;;;1.03;;
17153;SDS011;8692;52.164;7.558;2023-05-16T13:06:42;4.03;;;0.97;;
17153;SDS011;8692;52.164;7.558;2023-05-16T13:09:24;4.57;;;0.80;;
17153;SDS011;8692;52.164;7.558;2023-05-16T13:11:57;3.50;;;1.10;;
17153;SDS011;8692;52.164;7.558;2023-05-16T13:14:27;4.17;;;0.90;;
17153;SDS011;8692;52.164;7.558;2023-05-16T13:16:58;3.00;;;1.27;;
17153;SDS011;8692;52.164;7.558;2023-05-16T13:19:29;3.83;;;1.20;;
17153;SDS011;8692;52.164;7.558;2023-05-16T13:21:58;3.93;;;1.37;;
17153;SDS011;8692;52.164;7.558;2023-05-16T13:24:26;3.40;;;1.10;;
17153;SDS011;8692;52.164;7.558;2023-05-16T13:26:54;2.60;;;1.17;;
17153;SDS011;8692;52.164;7.558;2023-05-16T13:29:24;3.33;;;1.13;;
17153;SDS011;8692;52.164;7.558;2023-05-16T13:31:59;4.23;;;1.30;;
17153;SDS011;8692;52.164;7.558;2023-05-16T13:34:30;2.67;;;1.10;;
17153;SDS011;8692;52.164;7.558;2023-05-16T13:36:59;3.37;;;1.00;;
17153;SDS011;8692;52.164;7.558;2023-05-16T13:39:27;4.43;;;1.30;;
17153;SDS011;8692;52.164;7.558;2023-05-16T13:41:55;2.50;;;1.07;;
17153;SDS011;8692;52.164;7.558;2023-05-16T13:44:26;2.73;;;1.13;;
17153;SDS011;8692;52.164;7.558;2023-05-16T13:46:55;3.03;;;1.07;;
17153;SDS011;8692;52.164;7.558;2023-05-16T13:49:27;3.77;;;1.03;;
17153;SDS011;8692;52.164;7.558;2023-05-16T13:51:55;3.43;;;1.03;;
17153;SDS011;8692;52.164;7.558;2023-05-16T13:54:24;3.93;;;1.20;;
17153;SDS011;8692;52.164;7.558;2023-05-16T13:56:52;4.07;;;0.97;;
17153;SDS011;8692;52.164;7.558;2023-05-16T13:59:23;3.50;;;1.03;;
17153;SDS011;8692;52.164;7.558;2023-05-16T14:02:11;2.83;;;1.30;;
17153;SDS011;8692;52.164;7.558;2023-05-16T14:04:43;6.30;;;1.27;;
17153;SDS011;8692;52.164;7.558;2023-05-16T14:07:15;6.80;;;1.70;;
17153;SDS011;8692;52.164;7.558;2023-05-16T14:09:43;4.73;;;1.30;;
17153;SDS011;8692;52.164;7.558;2023-05-16T14:12:11;4.47;;;1.20;;
17153;SDS011;8692;52.164;7.558;2023-05-16T14:14:39;4.40;;;1.90;;
17153;SDS011;8692;52.164;7.558;2023-05-16T14:17:08;3.80;;;1.47;;
17153;SDS011;8692;52.164;7.558;2023-05-16T14:19:36;3.30;;;1.60;;
17153;SDS011;8692;52.164;7.558;2023-05-16T14:22:06;5.13;;;1.60;;
17153;SDS011;8692;52.164;7.558;2023-05-16T14:24:34;7.10;;;1.27;;
17153;SDS011;8692;52.164;7.558;2023-05-16T14:27:04;3.67;;;1.83;;
17153;SDS011;8692;52.164;7.558;2023-05-16T14:29:33;3.27;;;1.33;;
17153;SDS011;8692;52.164;7.558;2023-05-16T14:32:04;2.57;;;1.27;;
17153;SDS011;8692;52.164;7.558;2023-05-16T14:34:32;4.90;;;1.60;;
17153;SDS011;8692;52.164;7.558;2023-05-16T14:37:01;5.50;;;2.07;;
17153;SDS011;8692;52.164;7.558;2023-05-16T14:39:30;4.80;;;1.30;;
17153;SDS011;8692;52.164;7.558;2023-05-16T14:41:59;4.63;;;1.63;;
17153;SDS011;8692;52.164;7.558;2023-05-16T14:44:27;4.47;;;1.47;;
17153;SDS011;8692;52.164;7.558;2023-05-16T14:46:55;2.57;;;1.43;;
17153;SDS011;8692;52.164;7.558;2023-05-16T14:49:24;4.23;;;1.40;;
17153;SDS011;8692;52.164;7.558;2023-05-16T14:51:52;6.63;;;1.83;;
17153;SDS011;8692;52.164;7.558;2023-05-16T14:54:22;4.43;;;1.40;;
17153;SDS011;8692;52.164;7.558;2023-05-16T14:56:55;4.17;;;1.57;;
17153;SDS011;8692;52.164;7.558;2023-05-16T14:59:25;4.63;;;1.43;;
17153;SDS011;8692;52.164;7.558;2023-05-16T15:01:53;3.67;;;1.30;;
17153;SDS011;8692;52.164;7.558;2023-05-16T15:04:22;5.93;;;2.03;;
17153;SDS011;8692;52.164;7.558;2023-05-16T15:06:50;2.57;;;1.27;;
17153;SDS011;8692;52.164;7.558;2023-05-16T15:09:18;6.77;;;1.30;;
17153;SDS011;8692;52.164;7.558;2023-05-16T15:11:46;5.03;;;1.60;;
17153;SDS011;8692;52.164;7.558;2023-05-16T15:14:16;6.57;;;1.53;;
17153;SDS011;8692;52.164;7.558;2023-05-16T15:16:44;3.27;;;1.40;;
17153;SDS011;8692;52.164;7.558;2023-05-16T15:19:16;4.47;;;1.63;;